Newport, NC

3:07 AM EDT on July 05, 2015 (GMT -0400)
Sea Gate | | Change Station
CLOSE
Current Station
Personal Weather Station
Location: Newport, NC
Elevation: 10 ft
Nearby Weather Stations

Elev 10 ft 34.85 °N, 76.69 °W | Updated 27 seconds ago

Clear
Clear
78.5 °F
Feels Like 82 °F
N
0.0
Wind Variable Wind from SW
Gusts 3.0 mph

Today
High -- | Low -- °F
--% Chance of Precip.
Yesterday
High -- | Low -- °F
Precip. -- in
5:58 AM 8:23 PM
Waning Gibbous, 87% visible
Pressure 30.07 in
Visibility 10.0 miles
Clouds Few 1000 ft
Heat Index 82 °F
Dew Point 76 °F
Humidity 92%
Rainfall 0.00 in
Snow Depth Not available.
UV 0 out of 12
Pollen 2.50 out of 12
Air Quality Not available.
Flu Activity Not available.
METAR KMRH 050658Z AUTO 23010KT 10SM FEW010 26/25 A3007 RMK AO2 SLP182 T02610250 TSNO $

More Conditions Fewer Conditions

Pressure 30.07 in
Visibility 10.0 miles
Clouds Few 1000 ft
Heat Index 82 °F
Dew Point 76 °F
Humidity 92%
Rainfall 0.00 in
Snow Depth Not available.
UV 0 out of 12
Pollen 2.50 out of 12
Air Quality Not available.
Flu Activity Not available.
METAR KMRH 050658Z AUTO 23010KT 10SM FEW010 26/25 A3007 RMK AO2 SLP182 T02610250 TSNO $

More Conditions Fewer Conditions

10-Day Weather Forecast

×

Almanac

Astronomy

Jul. 05, 2015 Rise Set
Actual Time
Civil Twilight
Nautical Twilight
Astronomical Twilight
Moon
Length of Visible Light
Length of Day
Tomorrow will be .
, % of the Moon is Illuminated

Today's Extremes

State Highs State Lows

Community

WunderPhotos

Upload Photos

1,835,215 photos uploaded!

WunderBlogs® & News

Nearby

Air Quality

  Air Quality AQ Index Pollutant
Not available.

Snow Depth

Station Depth Elevation

Earthquake Activity

City Distance Mag. Time & Date
Minimum magnitude displayed is 2.5.

Coastal Water Temperatures

Place Temperature

Stations

Nearby Weather Stations

Station Location Temp. Windchill Dew Point Humidity Wind Precip. Elev Updated Type